Time;durP1;ratioP1;P1;durP2;ratioP2;P2;SDS_P1;SDS_P2;PMS_P1;PMS_P2;Temp;Humidity;BMP_temperature;BMP_pressure;BME280_temperature;BME280_humidity;BME280_pressure;Samples;Min_cycle;Max_cycle;Signal;HPM_P1;HPM_P2
2023/05/13 00:00:28;;;;;;;5.32;3.85;;;;;;;20.13;52.50;101944.50;5012665;28;20382;-75
2023/05/13 00:02:53;;;;;;;5.20;3.40;;;;;;;20.12;52.95;101945.47;5009799;28;21349;-76
2023/05/13 00:05:19;;;;;;;5.10;3.72;;;;;;;20.14;52.45;101950.66;5010064;28;20053;-75
2023/05/13 00:07:44;;;;;;;5.75;3.97;;;;;;;20.10;52.52;101942.09;5014432;28;20079;-76
2023/05/13 00:10:10;;;;;;;6.90;3.20;;;;;;;20.13;52.73;101944.50;5017194;28;20053;-75
2023/05/13 00:12:36;;;;;;;5.00;3.80;;;;;;;20.12;52.55;101942.81;5014528;28;20038;-76
2023/05/13 00:15:01;;;;;;;5.68;3.80;;;;;;;20.10;52.60;101934.16;5014523;28;20073;-76
2023/05/13 00:17:26;;;;;;;5.03;3.70;;;;;;;20.13;52.52;101941.03;5012053;28;20046;-76
2023/05/13 00:19:52;;;;;;;4.97;3.80;;;;;;;20.09;52.56;101941.25;5010984;28;20410;-76
2023/05/13 00:22:17;;;;;;;5.07;3.83;;;;;;;20.09;52.50;101935.97;5013896;28;20321;-76
2023/05/13 00:24:42;;;;;;;5.28;3.92;;;;;;;20.08;52.17;101936.06;5013021;28;20113;-76
2023/05/13 00:27:09;;;;;;;6.13;3.53;;;;;;;20.07;52.55;101935.22;5009435;28;20041;-76
2023/05/13 00:29:34;;;;;;;4.65;3.33;;;;;;;20.06;52.42;101936.19;5010585;28;20041;-75
2023/05/13 00:31:59;;;;;;;5.78;3.53;;;;;;;20.08;52.35;101938.72;5011544;28;20034;-74
2023/05/13 00:34:24;;;;;;;6.55;4.07;;;;;;;20.06;52.43;101930.03;5009120;28;20041;-75
2023/05/13 00:36:50;;;;;;;5.10;3.47;;;;;;;20.08;52.38;101931.63;5011192;28;20033;-75
2023/05/13 00:39:15;;;;;;;5.18;3.60;;;;;;;20.07;52.24;101935.22;5013127;28;20182;-75
2023/05/13 00:41:40;;;;;;;4.90;3.53;;;;;;;20.05;52.09;101936.28;5015045;28;20037;-76
2023/05/13 00:44:06;;;;;;;6.32;3.53;;;;;;;20.05;51.82;101934.47;5014218;28;20488;-75
2023/05/13 00:46:32;;;;;;;5.10;3.70;;;;;;;20.03;51.87;101936.41;5010978;28;20396;-74
2023/05/13 00:48:58;;;;;;;4.70;3.35;;;;;;;20.06;52.07;101946.78;5015630;28;20160;-74
2023/05/13 00:51:23;;;;;;;5.32;3.65;;;;;;;20.05;52.17;101939.78;5014810;28;20037;-74
2023/05/13 00:53:50;;;;;;;4.60;3.42;;;;;;;20.05;52.09;101945.06;5012913;28;20045;-74
2023/05/13 00:56:20;;;;;;;5.47;3.90;;;;;;;20.02;52.14;101941.81;5012383;28;20048;-74
2023/05/13 00:58:46;;;;;;;5.68;3.97;;;;;;;20.02;51.93;101942.63;5012810;28;20508;-75
2023/05/13 01:01:43;;;;;;;7.30;4.00;;;;;;;20.03;51.78;101946.16;5013638;28;20064;-74
2023/05/13 01:04:29;;;;;;;6.57;4.07;;;;;;;20.04;51.85;101943.38;5012181;28;20060;-74
2023/05/13 01:07:13;;;;;;;5.40;3.25;;;;;;;20.05;51.89;101949.53;5010673;28;20030;-74
2023/05/13 01:10:32;;;;;;;6.70;3.50;;;;;;;20.05;51.66;101952.16;5010084;28;20466;-74
2023/05/13 01:13:03;;;;;;;5.78;3.60;;;;;;;20.04;51.47;101951.31;4942448;29;20731;-74
2023/05/13 01:15:30;;;;;;;6.50;3.50;;;;;;;20.02;51.75;101941.81;4994468;28;20124;-75
2023/05/13 01:18:08;;;;;;;5.53;4.10;;;;;;;20.01;51.79;101940.97;5015902;28;20038;-74
2023/05/13 01:20:35;;;;;;;6.43;3.70;;;;;;;20.01;51.54;101938.31;5013365;28;20073;-74
2023/05/13 01:23:02;;;;;;;4.90;3.28;;;;;;;20.00;51.63;101933.97;5018493;28;20057;-74
2023/05/13 01:25:28;;;;;;;5.50;3.75;;;;;;;19.99;51.38;101934.09;5016380;28;20038;-75
2023/05/13 01:27:53;;;;;;;6.28;3.40;;;;;;;19.97;51.53;101928.06;5033811;28;20044;-75
2023/05/13 01:30:19;;;;;;;5.28;3.38;;;;;;;19.98;51.30;101942.97;5009596;28;20037;-74
2023/05/13 01:32:45;;;;;;;5.05;3.58;;;;;;;20.01;51.21;101943.63;5012442;28;21136;-76
2023/05/13 01:35:11;;;;;;;5.07;3.50;;;;;;;20.01;51.44;101943.63;5011029;28;20034;-76
2023/05/13 01:37:37;;;;;;;4.75;3.47;;;;;;;19.99;51.61;101937.56;5013474;28;20041;-76
2023/05/13 01:40:04;;;;;;;5.68;3.60;;;;;;;19.98;51.30;101937.69;5011866;28;20030;-76
2023/05/13 01:42:30;;;;;;;6.40;3.72;;;;;;;19.98;51.44;101941.19;5013278;28;20029;-75
2023/05/13 01:44:56;;;;;;;5.85;3.58;;;;;;;19.97;51.45;101943.94;5007348;28;20060;-76
2023/05/13 01:47:21;;;;;;;5.28;3.97;;;;;;;19.98;51.52;101942.97;5013550;28;20061;-76
2023/05/13 01:49:46;;;;;;;4.97;3.72;;;;;;;19.97;51.24;101936.00;5013497;28;20293;-75
2023/05/13 01:52:12;;;;;;;5.20;3.70;;;;;;;19.97;51.49;101941.28;5008931;28;20042;-76
2023/05/13 01:54:37;;;;;;;6.28;3.75;;;;;;;19.94;51.46;101942.34;5016122;28;20848;-75
2023/05/13 01:57:03;;;;;;;6.88;3.90;;;;;;;19.99;51.29;101949.97;5012376;28;20048;-75
2023/05/13 01:59:28;;;;;;;6.43;3.83;;;;;;;19.98;51.36;101942.97;5011108;28;20041;-75
2023/05/13 02:01:54;;;;;;;5.30;3.90;;;;;;;19.93;51.05;101941.50;5016357;28;20025;-75
2023/05/13 02:04:20;;;;;;;5.45;3.35;;;;;;;19.96;50.97;101939.59;5012570;28;20042;-75
2023/05/13 02:06:45;;;;;;;5.78;3.88;;;;;;;19.94;51.22;101948.47;5010581;28;20429;-75
2023/05/13 02:09:10;;;;;;;5.78;3.50;;;;;;;19.93;51.06;101944.16;5017408;28;20040;-76
2023/05/13 02:11:36;;;;;;;5.10;3.50;;;;;;;19.98;51.27;101945.63;5014273;28;20114;-75
2023/05/13 02:14:01;;;;;;;4.68;3.45;;;;;;;19.96;51.26;101945.72;5010733;28;20291;-75
2023/05/13 02:16:26;;;;;;;4.87;3.70;;;;;;;19.94;50.92;101947.66;5020097;28;20128;-74
2023/05/13 02:18:52;;;;;;;5.18;3.63;;;;;;;19.97;51.25;101941.28;5018635;28;20266;-76
2023/05/13 02:21:17;;;;;;;5.13;3.78;;;;;;;19.93;51.06;101940.66;5012771;28;20033;-74
2023/05/13 02:23:42;;;;;;;5.45;3.85;;;;;;;19.93;50.82;101940.66;5012837;28;20041;-75
2023/05/13 02:26:07;;;;;;;6.07;3.67;;;;;;;19.91;50.89;101945.22;5009276;28;20056;-75
2023/05/13 02:28:33;;;;;;;6.00;3.85;;;;;;;19.95;50.73;101954.63;5015545;28;20045;-76
2023/05/13 02:30:58;;;;;;;5.22;3.70;;;;;;;19.93;51.10;101946.81;5021074;28;20033;-75
2023/05/13 02:33:24;;;;;;;5.85;3.53;;;;;;;19.91;51.00;101953.97;5016224;28;20041;-75
2023/05/13 02:35:49;;;;;;;5.13;3.78;;;;;;;19.93;50.65;101957.38;5018793;28;20041;-75
2023/05/13 02:38:14;;;;;;;5.30;4.00;;;;;;;19.94;50.78;101952.94;5010929;28;20103;-75
2023/05/13 02:40:40;;;;;;;5.20;3.47;;;;;;;19.94;50.69;101945.00;5008327;28;20034;-74
2023/05/13 02:43:05;;;;;;;5.85;3.88;;;;;;;19.90;50.85;101946.16;5022771;28;20709;-76
2023/05/13 02:45:32;;;;;;;5.78;3.58;;;;;;;19.92;50.86;101946.91;5021918;28;20033;-77
2023/05/13 02:47:57;;;;;;;6.20;3.65;;;;;;;19.89;50.97;101942.69;5005038;28;20505;-75
2023/05/13 02:50:23;;;;;;;6.17;3.90;;;;;;;19.91;50.77;101945.22;5014184;28;20025;-76
2023/05/13 02:52:48;;;;;;;6.57;3.65;;;;;;;19.90;50.47;101941.72;5020812;28;20279;-76
2023/05/13 02:55:13;;;;;;;5.68;3.90;;;;;;;19.89;50.91;101933.91;5019833;28;20034;-76
2023/05/13 02:57:39;;;;;;;5.20;3.83;;;;;;;19.87;50.65;101934.00;5010982;28;20160;-76
2023/05/13 03:00:05;;;;;;;4.97;3.83;;;;;;;19.89;50.61;101936.56;5016111;28;20111;-77
2023/05/13 03:02:31;;;;;;;5.82;3.80;;;;;;;19.89;50.64;101940.03;5023733;28;20029;-76
2023/05/13 03:04:57;;;;;;;5.20;3.40;;;;;;;19.90;50.62;101938.22;5023097;28;20060;-76
2023/05/13 03:07:23;;;;;;;5.57;3.88;;;;;;;19.87;50.55;101933.19;5012723;28;20037;-76
2023/05/13 03:09:48;;;;;;;6.40;4.30;;;;;;;19.89;50.51;101936.56;5012976;28;20042;-75
2023/05/13 03:12:14;;;;;;;5.93;4.07;;;;;;;19.86;50.37;101934.97;5003269;28;20172;-76
2023/05/13 03:14:39;;;;;;;5.28;3.47;;;;;;;19.88;50.67;101940.97;5003301;28;20054;-76
2023/05/13 03:17:05;;;;;;;5.78;3.55;;;;;;;19.86;50.74;101931.47;5010685;28;20060;-76
2023/05/13 03:19:32;;;;;;;5.85;4.00;;;;;;;19.85;50.63;101933.28;5009720;28;20052;-76
2023/05/13 03:21:58;;;;;;;6.65;3.72;;;;;;;19.84;50.45;101936.03;5013001;28;20026;-76
2023/05/13 03:24:23;;;;;;;5.50;3.67;;;;;;;19.83;50.20;101939.63;5009524;28;20181;-75
2023/05/13 03:26:48;;;;;;;5.78;3.80;;;;;;;19.84;49.98;101939.53;5005821;28;20740;-75
2023/05/13 03:29:14;;;;;;;6.30;3.80;;;;;;;19.83;50.04;101942.28;5003231;28;20452;-75
2023/05/13 03:31:39;;;;;;;5.65;3.97;;;;;;;19.84;50.06;101943.97;5010049;28;20033;-76
2023/05/13 03:34:05;;;;;;;5.22;3.72;;;;;;;19.84;50.15;101947.47;5015717;28;20034;-74
2023/05/13 03:36:31;;;;;;;5.07;3.60;;;;;;;19.84;50.36;101947.47;5013987;28;20041;-75
2023/05/13 03:38:56;;;;;;;5.95;3.80;;;;;;;19.84;50.32;101957.22;5015349;28;20375;-75
2023/05/13 03:41:21;;;;;;;5.30;4.00;;;;;;;19.82;50.31;101953.81;5013522;28;20820;-75
2023/05/13 03:43:47;;;;;;;6.00;3.85;;;;;;;19.83;50.25;101955.50;5012896;28;20084;-75
2023/05/13 03:46:12;;;;;;;5.47;3.95;;;;;;;19.84;50.31;101958.03;5012765;28;20049;-75
2023/05/13 03:48:37;;;;;;;6.70;4.28;;;;;;;19.81;49.87;101957.41;5010082;28;20034;-75
2023/05/13 03:51:03;;;;;;;5.80;3.72;;;;;;;19.80;49.96;101953.06;5017392;28;20030;-74
2023/05/13 03:53:28;;;;;;;5.47;4.07;;;;;;;19.80;49.75;101961.84;5015281;28;20038;-75
2023/05/13 03:55:53;;;;;;;7.38;3.80;;;;;;;19.79;49.84;101957.53;5012480;28;20413;-76
2023/05/13 03:58:20;;;;;;;6.60;3.78;;;;;;;19.81;49.73;101955.59;5015533;28;20080;-76
2023/05/13 04:00:46;;;;;;;5.22;3.65;;;;;;;19.79;49.98;101962.81;5010932;28;20073;-76
2023/05/13 04:03:11;;;;;;;6.90;4.30;;;;;;;19.81;49.73;101952.13;5010321;28;20065;-75
2023/05/13 04:05:36;;;;;;;5.03;3.42;;;;;;;19.81;49.66;101955.59;5013034;28;20033;-76
2023/05/13 04:08:02;;;;;;;5.50;3.55;;;;;;;19.77;49.93;101951.47;5011762;28;20128;-76
2023/05/13 04:10:27;;;;;;;6.05;3.92;;;;;;;19.74;49.76;101949.03;5021527;28;20044;-76
2023/05/13 04:12:52;;;;;;;4.82;3.60;;;;;;;19.78;49.74;101952.34;5007047;28;20103;-75
2023/05/13 04:15:18;;;;;;;6.63;3.87;;;;;;;19.79;49.78;101959.31;5008358;28;21356;-76
2023/05/13 04:17:43;;;;;;;5.82;4.35;;;;;;;19.78;50.01;101953.19;5014269;28;20337;-75
2023/05/13 04:20:08;;;;;;;6.28;4.07;;;;;;;19.76;49.94;101952.44;5010024;28;20220;-77
2023/05/13 04:22:34;;;;;;;6.22;4.70;;;;;;;19.76;49.91;101952.44;5015684;28;20049;-76
2023/05/13 04:25:00;;;;;;;5.07;3.75;;;;;;;19.77;49.96;101950.66;5015079;28;20025;-76
2023/05/13 04:27:25;;;;;;;7.25;4.15;;;;;;;19.74;49.75;101949.88;5006295;28;20788;-76
2023/05/13 04:29:50;;;;;;;6.75;4.03;;;;;;;19.75;49.27;101964.78;5013600;28;20244;-76
2023/05/13 04:32:20;;;;;;;4.93;3.92;;;;;;;19.75;49.87;101962.13;5012635;28;20047;-75
2023/05/13 04:34:48;;;;;;;6.00;3.65;;;;;;;19.74;49.67;101965.75;5010115;28;20540;-76
2023/05/13 04:37:14;;;;;;;6.40;3.90;;;;;;;19.75;49.66;101961.28;5008839;28;20037;-76
2023/05/13 04:39:40;;;;;;;5.80;3.97;;;;;;;19.75;49.75;101961.28;5008166;28;20047;-77
2023/05/13 04:42:05;;;;;;;5.43;3.97;;;;;;;19.73;49.77;101974.63;5011030;28;20112;-75
2023/05/13 04:44:32;;;;;;;6.32;4.03;;;;;;;19.74;49.56;101976.34;5021590;28;20147;-76
2023/05/13 04:46:57;;;;;;;5.07;3.83;;;;;;;19.74;49.75;101975.47;5014948;28;20196;-75
2023/05/13 04:49:22;;;;;;;5.07;3.65;;;;;;;19.74;49.47;101978.09;5034684;28;20746;-75
2023/05/13 04:51:47;;;;;;;5.13;3.90;;;;;;;19.72;49.83;101972.94;5002221;28;20047;-76
2023/05/13 04:54:13;;;;;;;4.93;3.75;;;;;;;19.72;49.68;101977.38;5019345;28;20366;-75
2023/05/13 04:56:38;;;;;;;5.82;4.28;;;;;;;19.72;49.31;101974.75;5014039;28;20168;-76
2023/05/13 04:59:04;;;;;;;5.28;3.72;;;;;;;19.73;49.61;101979.91;5009939;28;20440;-75
2023/05/13 05:01:29;;;;;;;6.63;4.10;;;;;;;19.71;49.50;101984.47;5008588;28;20034;-77
2023/05/13 05:03:54;;;;;;;5.85;4.22;;;;;;;19.70;49.58;101984.59;5013512;28;20041;-75
2023/05/13 05:06:20;;;;;;;6.25;4.15;;;;;;;19.64;49.82;101975.28;5017453;28;20044;-75
2023/05/13 05:08:46;;;;;;;4.85;3.90;;;;;;;19.69;49.47;101983.75;5013183;28;20903;-75
2023/05/13 05:11:11;;;;;;;6.60;4.22;;;;;;;19.71;49.45;101987.13;5012918;28;20108;-75
2023/05/13 05:13:36;;;;;;;5.82;4.05;;;;;;;19.70;49.50;101984.59;5009795;28;20053;-76
2023/05/13 05:16:02;;;;;;;5.53;3.70;;;;;;;19.70;49.38;101989.88;5009112;28;20033;-76
2023/05/13 05:18:27;;;;;;;4.95;3.70;;;;;;;19.68;49.52;101989.97;5010328;28;20034;-77
2023/05/13 05:20:52;;;;;;;6.00;3.85;;;;;;;19.70;49.67;101993.34;5010436;28;20038;-76
2023/05/13 05:23:17;;;;;;;5.20;3.80;;;;;;;19.67;49.71;101990.94;5009670;28;20041;-76
2023/05/13 05:25:43;;;;;;;5.83;4.10;;;;;;;19.69;49.57;101998.75;5011629;28;20033;-75
2023/05/13 05:28:08;;;;;;;5.10;3.53;;;;;;;19.66;49.54;101998.97;5003580;28;20352;-75
2023/05/13 05:30:38;;;;;;;5.90;3.95;;;;;;;19.68;49.73;102003.22;5029467;28;20045;-75
2023/05/13 05:33:07;;;;;;;5.25;3.78;;;;;;;19.64;49.48;101996.44;5014417;28;20033;-76
2023/05/13 05:35:36;;;;;;;6.68;4.20;;;;;;;19.62;49.82;102000.16;5016339;28;20160;-77
2023/05/13 05:38:03;;;;;;;6.47;3.97;;;;;;;19.61;49.65;102004.56;5016397;28;20037;-75
2023/05/13 05:40:28;;;;;;;5.15;3.90;;;;;;;19.62;49.86;102008.91;5015143;28;20889;-75
2023/05/13 05:42:53;;;;;;;6.20;4.07;;;;;;;19.61;49.72;102007.22;5016435;28;20036;-76
2023/05/13 05:45:19;;;;;;;5.30;3.60;;;;;;;19.61;50.00;102009.03;5013043;28;20080;-73
2023/05/13 05:47:44;;;;;;;5.20;3.80;;;;;;;19.62;49.83;102014.22;5016784;28;20080;-72
2023/05/13 05:50:10;;;;;;;5.53;4.00;;;;;;;19.65;49.64;102019.28;5012687;28;20038;-77
2023/05/13 05:52:35;;;;;;;5.72;3.80;;;;;;;19.70;49.44;102022.44;5014562;28;20033;-76
2023/05/13 05:55:01;;;;;;;5.63;3.80;;;;;;;19.76;49.55;102029.16;5014439;28;20033;-76
2023/05/13 05:57:27;;;;;;;5.65;4.20;;;;;;;19.73;49.40;102014.31;5012749;28;20124;-76
2023/05/13 05:59:52;;;;;;;5.25;3.67;;;;;;;19.75;49.32;102014.19;5014369;28;20126;-75
2023/05/13 06:02:17;;;;;;;5.50;3.65;;;;;;;19.75;49.45;102015.03;5016955;28;20462;-76
2023/05/13 06:04:43;;;;;;;6.65;4.07;;;;;;;19.74;49.46;102016.00;5014850;28;20061;-75
2023/05/13 06:07:08;;;;;;;5.18;3.53;;;;;;;19.73;49.47;102010.81;5011659;28;20116;-77
2023/05/13 06:09:34;;;;;;;6.07;3.92;;;;;;;19.72;49.54;102003.84;5009928;28;20047;-78
2023/05/13 06:11:59;;;;;;;5.93;3.83;;;;;;;19.72;49.30;102014.41;5009951;28;20033;-75
2023/05/13 06:14:24;;;;;;;5.22;3.75;;;;;;;19.73;49.51;102018.75;5013467;28;20107;-76
2023/05/13 06:16:50;;;;;;;5.73;4.03;;;;;;;19.68;49.61;102013.78;5012988;28;20061;-78
2023/05/13 06:19:15;;;;;;;7.47;4.03;;;;;;;19.69;49.78;102026.06;5013738;28;20263;-74
2023/05/13 06:21:41;;;;;;;5.50;3.57;;;;;;;19.69;49.73;102025.19;5015184;28;20072;-73
2023/05/13 06:24:08;;;;;;;6.53;4.20;;;;;;;19.67;49.65;102022.66;5017815;28;20306;-74
2023/05/13 06:26:33;;;;;;;5.45;3.90;;;;;;;19.73;49.61;102030.16;5014416;28;20040;-75
2023/05/13 06:28:58;;;;;;;7.45;3.83;;;;;;;19.73;50.02;102027.53;5010232;28;20484;-75
2023/05/13 06:31:24;;;;;;;6.30;4.35;;;;;;;19.77;49.88;102032.63;5012508;28;20040;-76
2023/05/13 06:33:49;;;;;;;7.75;4.28;;;;;;;19.73;50.29;102030.16;5013734;28;20117;-75
2023/05/13 06:36:14;;;;;;;8.43;4.43;;;;;;;19.72;49.96;102028.47;5016961;28;20041;-74
2023/05/13 06:38:40;;;;;;;6.20;4.13;;;;;;;19.75;50.26;102030.91;5011023;28;20444;-74
2023/05/13 06:41:05;;;;;;;8.15;4.50;;;;;;;19.76;50.30;102034.44;5019553;28;20030;-77
2023/05/13 06:43:30;;;;;;;6.80;4.80;;;;;;;19.75;50.66;102030.91;5014123;28;20079;-73
2023/05/13 06:45:56;;;;;;;6.30;4.77;;;;;;;19.78;50.45;102039.63;5015285;28;20037;-73
2023/05/13 06:48:21;;;;;;;8.40;4.75;;;;;;;19.80;50.75;102040.38;5020336;28;20730;-77
2023/05/13 06:50:48;;;;;;;6.80;4.90;;;;;;;19.79;50.69;102036.88;5021969;28;20025;-76
2023/05/13 06:53:14;;;;;;;9.23;4.30;;;;;;;19.79;51.03;102036.88;5016450;28;20034;-74
2023/05/13 06:55:40;;;;;;;5.97;4.40;;;;;;;19.74;51.06;102039.81;5013302;28;20041;-72
2023/05/13 06:58:07;;;;;;;6.10;4.22;;;;;;;19.73;50.83;102039.91;5005549;28;20061;-75
2023/05/13 07:00:36;;;;;;;5.93;4.32;;;;;;;19.69;51.00;102035.78;5021276;28;20045;-78
2023/05/13 07:03:02;;;;;;;5.60;4.00;;;;;;;19.68;51.16;102037.59;5013970;28;20056;-77
2023/05/13 07:05:34;;;;;;;6.78;4.55;;;;;;;19.69;51.23;102036.66;5012735;28;20037;-76
2023/05/13 07:08:00;;;;;;;7.18;4.60;;;;;;;19.69;51.31;102041.94;5007204;28;20117;-75
2023/05/13 07:10:25;;;;;;;7.22;4.82;;;;;;;19.73;50.88;102046.03;5013534;28;20374;-76
2023/05/13 07:12:51;;;;;;;7.55;4.57;;;;;;;19.71;51.29;102044.44;5011416;28;20040;-77
2023/05/13 07:15:16;;;;;;;6.97;4.32;;;;;;;19.71;51.25;102036.50;5015642;28;20061;-76
2023/05/13 07:17:41;;;;;;;6.97;4.63;;;;;;;19.75;51.43;102038.00;5012540;28;20096;-75
2023/05/13 07:20:08;;;;;;;7.80;4.53;;;;;;;19.74;51.46;102034.53;5013394;28;20033;-75
2023/05/13 07:22:34;;;;;;;6.32;4.43;;;;;;;19.77;51.59;102045.88;5009884;28;20673;-74
2023/05/13 07:25:00;;;;;;;7.72;5.03;;;;;;;19.78;51.55;102045.75;5014786;28;20469;-75
2023/05/13 07:27:25;;;;;;;9.35;4.47;;;;;;;19.77;51.85;102048.50;5013124;28;20044;-74
2023/05/13 07:29:50;;;;;;;7.05;4.40;;;;;;;19.81;51.66;102040.25;5014162;28;20033;-77
2023/05/13 07:32:16;;;;;;;9.68;4.63;;;;;;;19.82;51.88;102041.09;5016001;28;20033;-77
2023/05/13 07:34:41;;;;;;;7.53;4.53;;;;;;;19.76;51.89;102031.81;5011446;28;20385;-75
2023/05/13 07:37:06;;;;;;;7.82;4.32;;;;;;;19.77;51.62;102041.41;5010371;28;20045;-73
2023/05/13 07:39:32;;;;;;;8.15;4.68;;;;;;;19.80;51.69;102035.06;5019356;28;20041;-73
2023/05/13 07:41:57;;;;;;;6.40;4.45;;;;;;;19.86;51.86;102043.41;5013122;28;20034;-73
2023/05/13 07:44:22;;;;;;;6.07;4.43;;;;;;;19.82;51.84;102036.66;5012461;28;20454;-74
2023/05/13 07:46:50;;;;;;;7.63;4.60;;;;;;;19.83;51.65;102043.63;5016051;28;20510;-69
2023/05/13 07:49:15;;;;;;;8.93;4.50;;;;;;;19.75;52.41;102041.47;5012178;28;20480;-73
2023/05/13 07:51:41;;;;;;;6.65;4.22;;;;;;;19.73;52.34;102042.56;5012945;28;20037;-77
2023/05/13 07:54:06;;;;;;;6.90;4.07;;;;;;;19.73;52.47;102046.03;5014178;28;20041;-76
2023/05/13 07:56:31;;;;;;;8.98;4.63;;;;;;;19.83;52.10;102048.09;5005040;28;20049;-74
2023/05/13 07:58:57;;;;;;;8.85;4.75;;;;;;;19.92;51.98;102048.28;5005685;28;20033;-73
2023/05/13 08:01:22;;;;;;;7.25;4.05;;;;;;;19.92;52.16;102037.69;5017496;28;20149;-77
2023/05/13 08:03:47;;;;;;;6.50;4.50;;;;;;;19.98;51.98;102041.72;5015843;28;20532;-73
2023/05/13 08:06:12;;;;;;;9.43;4.30;;;;;;;19.97;52.06;102044.47;5015484;28;20406;-71
2023/05/13 08:08:38;;;;;;;7.55;4.20;;;;;;;19.94;52.08;102049.00;5010797;28;20038;-72
2023/05/13 08:11:03;;;;;;;7.33;4.23;;;;;;;19.98;52.08;102054.09;5025465;28;20037;-72
2023/05/13 08:13:29;;;;;;;6.43;4.20;;;;;;;19.96;52.33;102045.44;5009476;28;20288;-74
2023/05/13 08:15:54;;;;;;;7.00;4.20;;;;;;;19.93;52.25;102042.06;5011026;28;20072;-74
2023/05/13 08:18:20;;;;;;;6.10;4.22;;;;;;;19.97;51.85;102050.63;5013270;28;20033;-74
2023/05/13 08:20:45;;;;;;;7.90;4.20;;;;;;;19.97;52.08;102047.97;5010037;28;20037;-73
2023/05/13 08:23:10;;;;;;;6.88;4.82;;;;;;;20.00;51.52;102044.28;5011619;28;20026;-74
2023/05/13 08:25:35;;;;;;;6.03;4.57;;;;;;;20.02;51.89;102042.34;5013435;28;20482;-72
2023/05/13 08:28:02;;;;;;;7.50;4.45;;;;;;;20.05;51.68;102045.63;5020663;28;20083;-72
2023/05/13 08:30:27;;;;;;;6.18;3.88;;;;;;;20.14;51.52;102049.44;5014189;28;20064;-74
2023/05/13 08:32:53;;;;;;;5.55;4.03;;;;;;;20.15;51.47;102043.16;5009404;28;20049;-77
2023/05/13 08:35:18;;;;;;;5.68;3.75;;;;;;;20.14;51.71;102043.28;5009708;28;20071;-76
2023/05/13 08:37:44;;;;;;;7.30;4.25;;;;;;;20.09;51.42;102038.31;5012574;28;20104;-79
2023/05/13 08:40:10;;;;;;;6.03;4.05;;;;;;;20.16;51.44;102042.22;5011760;28;20034;-76
2023/05/13 08:42:38;;;;;;;5.18;4.18;;;;;;;20.16;51.59;102038.75;5008956;28;20038;-75
2023/05/13 08:45:06;;;;;;;8.73;3.88;;;;;;;20.18;51.65;102045.59;5004673;28;20037;-74
2023/05/13 08:47:42;;;;;;;5.13;3.65;;;;;;;20.20;51.35;102046.34;5008128;28;20474;-75
2023/05/13 08:50:09;;;;;;;6.00;4.20;;;;;;;20.24;51.41;102046.97;5015289;28;20116;-75
2023/05/13 08:52:34;;;;;;;8.02;3.97;;;;;;;20.24;51.41;102058.41;5014337;28;20041;-77
2023/05/13 08:55:00;;;;;;;7.28;4.28;;;;;;;20.20;51.73;102045.50;5016826;28;20091;-74
2023/05/13 08:57:26;;;;;;;6.18;4.18;;;;;;;20.23;51.40;102048.75;5020834;28;20120;-74
2023/05/13 08:59:52;;;;;;;6.65;4.07;;;;;;;20.23;51.57;102046.09;5014534;28;20116;-76
2023/05/13 09:02:17;;;;;;;7.15;4.03;;;;;;;20.23;51.41;102042.63;5008189;28;20112;-76
2023/05/13 09:04:45;;;;;;;6.28;3.95;;;;;;;20.23;51.35;102042.63;5008614;28;20116;-75
2023/05/13 09:07:11;;;;;;;6.35;4.10;;;;;;;20.21;51.38;102031.31;5008509;28;20414;-77
2023/05/13 09:09:36;;;;;;;5.90;3.70;;;;;;;20.29;51.58;102039.53;5010846;28;20461;-76
2023/05/13 09:12:02;;;;;;;6.65;3.85;;;;;;;20.29;51.74;102034.25;5020984;28;20763;-69
2023/05/13 09:14:32;;;;;;;7.07;4.40;;;;;;;20.28;51.42;102037.84;5010211;28;20136;-74
2023/05/13 09:16:57;;;;;;;9.73;4.30;;;;;;;20.38;51.19;102038.06;5016042;28;20038;-73
2023/05/13 09:19:24;;;;;;;5.68;3.83;;;;;;;20.44;50.92;102035.78;5016446;28;20040;-73
2023/05/13 09:21:49;;;;;;;8.30;3.90;;;;;;;20.47;51.31;102045.31;5017586;28;20033;-74
2023/05/13 09:24:20;;;;;;;5.65;4.22;;;;;;;20.44;51.02;102035.78;5016738;28;20371;-73
2023/05/13 09:26:47;;;;;;;6.70;4.25;;;;;;;20.41;51.04;102032.50;5024996;28;20239;-72
2023/05/13 09:29:23;;;;;;;6.13;4.05;;;;;;;20.39;51.38;102027.31;5020226;28;20453;-72
2023/05/13 09:31:57;;;;;;;9.63;3.42;;;;;;;20.38;51.38;102024.81;5021212;28;20037;-70
2023/05/13 09:34:25;;;;;;;6.03;3.97;;;;;;;20.37;51.31;102021.28;5016544;28;20042;-73
2023/05/13 09:36:55;;;;;;;6.03;4.32;;;;;;;20.33;51.76;102029.56;5012398;28;20540;-70
2023/05/13 09:39:20;;;;;;;6.40;4.10;;;;;;;20.32;51.61;102019.97;5009782;28;20040;-68
2023/05/13 09:41:46;;;;;;;6.85;4.28;;;;;;;20.34;51.62;102034.75;5016982;28;20138;-67
2023/05/13 09:44:12;;;;;;;7.75;5.00;;;;;;;20.36;51.33;102027.56;5017108;28;20030;-69
2023/05/13 09:46:37;;;;;;;9.27;5.38;;;;;;;20.31;50.71;102016.44;5011717;28;20030;-68
2023/05/13 09:49:02;;;;;;;6.65;5.07;;;;;;;20.24;50.79;102009.91;5015006;28;20033;-69
2023/05/13 09:51:31;;;;;;;8.65;5.53;;;;;;;20.28;50.92;102019.31;5015565;28;20030;-71
2023/05/13 09:54:05;;;;;;;6.40;4.78;;;;;;;20.24;50.80;102016.03;5017480;28;20040;-67
2023/05/13 09:56:32;;;;;;;6.28;5.10;;;;;;;20.23;50.71;102014.34;5012530;28;20046;-71
2023/05/13 09:58:57;;;;;;;8.30;5.32;;;;;;;20.19;50.84;102009.41;5014874;28;20130;-69
2023/05/13 10:01:25;;;;;;;7.13;4.97;;;;;;;20.18;50.95;102015.66;5012869;28;20485;-68
2023/05/13 10:03:52;;;;;;;8.63;6.78;;;;;;;20.15;50.94;102006.13;5015527;28;20385;-69
2023/05/13 10:06:21;;;;;;;7.47;4.88;;;;;;;20.16;50.36;102006.97;5021067;28;21046;-68
2023/05/13 10:08:50;;;;;;;8.15;5.53;;;;;;;20.12;50.63;102014.28;5017661;28;20029;-68
2023/05/13 10:11:17;;;;;;;7.28;4.72;;;;;;;20.11;51.02;102004.66;5011616;28;20501;-68
2023/05/13 10:13:48;;;;;;;10.45;4.85;;;;;;;20.10;51.13;102005.59;5012057;28;20056;-70
2023/05/13 10:16:15;;;;;;;8.93;5.20;;;;;;;20.11;51.00;102013.44;5010719;28;20060;-69
2023/05/13 10:18:41;;;;;;;9.18;5.00;;;;;;;20.14;50.96;102004.44;5011275;28;20073;-68
2023/05/13 10:21:07;;;;;;;8.43;5.75;;;;;;;20.06;50.11;102002.34;5012204;28;20525;-66
2023/05/13 10:23:33;;;;;;;7.93;5.50;;;;;;;20.08;50.43;101996.94;5010263;28;20034;-69
2023/05/13 10:26:00;;;;;;;8.07;5.43;;;;;;;20.17;50.54;101995.41;5010628;28;20113;-71
2023/05/13 10:28:26;;;;;;;9.82;5.32;;;;;;;20.19;50.99;101993.53;5014000;28;20132;-72
2023/05/13 10:30:52;;;;;;;8.13;4.85;;;;;;;20.13;50.73;101981.56;5015402;28;20034;-70
2023/05/13 10:33:18;;;;;;;8.40;5.35;;;;;;;20.25;50.74;101998.34;5019854;28;20397;-70
2023/05/13 10:35:59;;;;;;;7.55;5.00;;;;;;;20.23;51.28;101993.16;5008268;28;20033;-71
2023/05/13 10:38:42;;;;;;;6.57;4.68;;;;;;;20.17;51.21;102000.72;5015869;28;20659;-73
2023/05/13 10:41:37;;;;;;;8.98;4.88;;;;;;;20.11;51.56;101997.56;5017834;28;20622;-74
2023/05/13 10:44:04;;;;;;;7.10;5.30;;;;;;;20.06;51.55;101994.41;5012483;28;20460;-73
2023/05/13 10:46:32;;;;;;;6.93;4.75;;;;;;;20.06;51.83;101993.53;5014097;28;20029;-74
2023/05/13 10:48:58;;;;;;;8.73;4.40;;;;;;;20.03;52.17;101991.97;5017161;28;20037;-74
2023/05/13 10:51:24;;;;;;;7.90;4.75;;;;;;;20.03;51.90;101988.50;5017956;28;20025;-72
2023/05/13 10:53:51;;;;;;;8.82;4.95;;;;;;;20.07;52.31;101988.13;5015011;28;20112;-73
2023/05/13 10:56:21;;;;;;;12.02;5.53;;;;;;;20.05;52.56;101997.16;5015641;28;20037;-71
2023/05/13 10:59:17;;;;;;;8.10;5.13;;;;;;;20.04;52.53;101998.09;5013812;28;20029;-70
2023/05/13 11:01:42;;;;;;;8.13;4.50;;;;;;;20.03;52.02;101986.69;5000629;28;20049;-69
2023/05/13 11:04:13;;;;;;;9.98;4.95;;;;;;;20.09;51.88;101995.97;5016165;28;20532;-71
2023/05/13 11:06:40;;;;;;;10.85;5.05;;;;;;;20.08;52.02;101991.66;5010447;28;20529;-74
2023/05/13 11:09:27;;;;;;;8.05;4.70;;;;;;;20.05;52.22;101984.75;5013704;28;20398;-72
2023/05/13 11:11:54;;;;;;;10.68;4.88;;;;;;;20.04;52.60;101982.22;5000440;28;20041;-71
2023/05/13 11:14:23;;;;;;;9.55;4.38;;;;;;;20.03;52.36;101975.25;5013147;28;20085;-74
2023/05/13 11:17:01;;;;;;;10.65;4.63;;;;;;;20.07;52.84;101971.41;5013762;28;20470;-71
2023/05/13 11:19:37;;;;;;;6.45;4.38;;;;;;;20.07;52.69;101974.91;5009882;28;20677;-74
2023/05/13 11:22:11;;;;;;;7.65;4.70;;;;;;;20.05;53.05;101971.53;5014882;28;20049;-73